createdAt,value
2023-11-21T00:01:41.828Z,63.87
2023-11-21T00:04:09.896Z,63.86
2023-11-21T00:06:37.948Z,64.28
2023-11-21T00:09:06.265Z,64.40
2023-11-21T00:11:34.142Z,64.38
2023-11-21T00:14:01.858Z,64.77
2023-11-21T00:16:29.329Z,64.68
2023-11-21T00:18:57.528Z,64.44
2023-11-21T00:21:25.130Z,63.97
2023-11-21T00:23:52.681Z,64.27
2023-11-21T00:26:20.523Z,62.97
2023-11-21T00:28:49.162Z,63.06
2023-11-21T00:31:16.845Z,63.39
2023-11-21T00:33:45.119Z,63.86
2023-11-21T00:36:14.106Z,63.88
2023-11-21T00:38:41.690Z,63.69
2023-11-21T00:41:09.391Z,63.34
2023-11-21T00:43:37.117Z,63.39
2023-11-21T00:46:10.714Z,63.54
2023-11-21T00:48:38.899Z,63.60
2023-11-21T00:51:07.450Z,63.01
2023-11-21T00:53:35.354Z,64.07
2023-11-21T00:56:03.765Z,61.99
2023-11-21T00:58:31.525Z,61.59
2023-11-21T01:00:59.268Z,62.60
2023-11-21T01:03:27.460Z,63.57
2023-11-21T01:05:55.439Z,63.38
2023-11-21T01:08:24.408Z,63.68
2023-11-21T01:10:52.488Z,63.46
2023-11-21T01:13:20.035Z,64.00
2023-11-21T01:15:47.640Z,62.81
2023-11-21T01:18:15.495Z,63.19
2023-11-21T01:20:42.976Z,63.68
2023-11-21T01:23:10.668Z,64.27
2023-11-21T01:25:38.607Z,63.44
2023-11-21T01:28:06.283Z,64.89
2023-11-21T01:30:34.177Z,62.91
2023-11-21T01:33:02.146Z,63.58
2023-11-21T01:35:31.639Z,63.27
2023-11-21T01:37:59.846Z,64.78
2023-11-21T01:40:27.849Z,64.02
2023-11-21T01:42:55.529Z,64.46
2023-11-21T01:45:23.558Z,64.87
2023-11-21T01:47:52.053Z,64.67
2023-11-21T01:50:20.364Z,64.46
2023-11-21T01:52:48.782Z,64.89
2023-11-21T01:55:27.485Z,64.51
2023-11-21T01:57:58.211Z,64.54
2023-11-21T02:00:29.603Z,64.71
2023-11-21T02:02:58.408Z,64.70
2023-11-21T02:05:27.154Z,65.01
2023-11-21T02:07:54.986Z,65.39
2023-11-21T02:10:24.716Z,64.74
2023-11-21T02:12:53.431Z,63.37
2023-11-21T02:15:22.245Z,63.84
2023-11-21T02:17:55.371Z,63.82
2023-11-21T02:20:26.186Z,64.58
2023-11-21T02:23:01.711Z,64.92
2023-11-21T02:25:35.365Z,64.91
2023-11-21T02:28:04.458Z,64.95
2023-11-21T02:30:35.792Z,64.84
2023-11-21T02:33:03.905Z,64.55
2023-11-21T02:35:33.248Z,64.96
2023-11-21T02:38:01.176Z,63.23
2023-11-21T02:40:28.910Z,63.88
2023-11-21T02:43:00.433Z,64.25
2023-11-21T02:45:28.397Z,64.36
2023-11-21T02:47:58.494Z,64.06
2023-11-21T02:50:28.120Z,63.04
2023-11-21T02:52:55.876Z,63.10
2023-11-21T02:55:26.193Z,63.79
2023-11-21T02:57:57.663Z,64.66
2023-11-21T03:00:28.057Z,64.79
2023-11-21T03:02:57.351Z,64.64
2023-11-21T03:05:24.994Z,64.37
2023-11-21T03:07:52.561Z,64.16
2023-11-21T03:10:22.620Z,64.59
2023-11-21T03:12:50.682Z,65.24
2023-11-21T03:15:18.498Z,64.84
2023-11-21T03:17:46.440Z,64.86
2023-11-21T03:20:15.096Z,65.07
2023-11-21T03:22:42.768Z,64.77
2023-11-21T03:25:13.465Z,63.64
2023-11-21T03:27:41.011Z,64.79
2023-11-21T03:30:10.012Z,64.74
2023-11-21T03:32:37.932Z,64.91
2023-11-21T03:35:07.307Z,64.40
2023-11-21T03:37:35.320Z,64.51
2023-11-21T03:40:05.504Z,64.86
2023-11-21T03:42:33.139Z,65.20
2023-11-21T03:45:00.590Z,64.83
2023-11-21T03:47:29.457Z,64.35
2023-11-21T03:49:57.495Z,65.67
2023-11-21T03:52:25.839Z,63.93
2023-11-21T03:54:53.857Z,63.98
2023-11-21T03:57:22.148Z,63.73
2023-11-21T03:59:49.691Z,62.54
2023-11-21T04:02:18.598Z,63.32
2023-11-21T04:04:46.860Z,63.94
2023-11-21T04:07:14.938Z,64.14
2023-11-21T04:09:42.588Z,64.30
2023-11-21T04:12:10.846Z,64.18
2023-11-21T04:14:38.442Z,63.78
2023-11-21T04:17:06.312Z,64.47
2023-11-21T04:19:34.177Z,63.83
2023-11-21T04:22:01.729Z,64.72
2023-11-21T04:24:29.452Z,64.59
2023-11-21T04:26:57.408Z,64.78
2023-11-21T04:29:24.869Z,65.16
2023-11-21T04:31:52.340Z,64.98
2023-11-21T04:34:20.099Z,65.30
2023-11-21T04:36:47.542Z,64.53
2023-11-21T04:39:15.266Z,64.12
2023-11-21T04:41:43.945Z,64.19
2023-11-21T04:44:11.615Z,64.89
2023-11-21T04:46:39.250Z,63.94
2023-11-21T04:49:07.013Z,64.46
2023-11-21T04:51:34.952Z,64.91
2023-11-21T04:54:02.396Z,65.17
2023-11-21T04:56:30.125Z,65.12
2023-11-21T04:58:57.911Z,65.21
2023-11-21T05:01:25.412Z,65.34
2023-11-21T05:03:53.890Z,65.14
2023-11-21T05:06:21.566Z,65.03
2023-11-21T05:08:49.100Z,64.77
2023-11-21T05:11:33.254Z,65.07
2023-11-21T05:14:02.905Z,65.57
2023-11-21T05:16:30.972Z,65.02
2023-11-21T05:19:02.220Z,65.33
2023-11-21T05:21:31.523Z,65.23
2023-11-21T05:23:59.464Z,65.18
2023-11-21T05:26:27.978Z,65.33
2023-11-21T05:28:55.650Z,64.66
2023-11-21T05:31:23.793Z,64.84
2023-11-21T05:33:51.292Z,64.67
2023-11-21T05:36:19.312Z,65.39
2023-11-21T05:38:47.181Z,65.30
2023-11-21T05:41:14.994Z,65.16
2023-11-21T05:43:42.497Z,65.64
2023-11-21T05:46:10.556Z,65.67
2023-11-21T05:48:40.989Z,65.02
2023-11-21T05:51:09.618Z,65.68
2023-11-21T05:53:37.555Z,65.27
2023-11-21T05:56:05.283Z,64.43
2023-11-21T05:58:33.388Z,65.04
2023-11-21T06:01:01.317Z,64.92
2023-11-21T06:03:29.366Z,65.12
2023-11-21T06:05:57.070Z,65.47
2023-11-21T06:08:25.867Z,65.02
2023-11-21T06:10:53.789Z,65.04
2023-11-21T06:13:25.563Z,65.64
2023-11-21T06:15:53.975Z,65.57
2023-11-21T06:18:21.586Z,64.60
2023-11-21T06:20:49.592Z,64.60
2023-11-21T06:23:17.665Z,65.41
2023-11-21T06:25:45.727Z,65.62
2023-11-21T06:28:13.386Z,63.83
2023-11-21T06:30:41.289Z,63.38
2023-11-21T06:33:09.288Z,63.54
2023-11-21T06:35:37.100Z,63.85
2023-11-21T06:38:04.948Z,64.54
2023-11-21T06:40:35.004Z,65.63
2023-11-21T06:43:02.637Z,65.13
2023-11-21T06:45:30.377Z,64.83
2023-11-21T06:47:57.967Z,64.81
2023-11-21T06:50:25.689Z,65.08
2023-11-21T06:52:53.598Z,66.03
2023-11-21T06:55:21.767Z,66.85
2023-11-21T06:57:49.682Z,67.20
2023-11-21T07:00:19.374Z,67.10
2023-11-21T07:02:47.429Z,67.94
2023-11-21T07:05:16.624Z,69.00
2023-11-21T07:07:45.155Z,69.34
2023-11-21T07:10:12.787Z,68.33
2023-11-21T07:12:41.253Z,68.40
2023-11-21T07:15:12.580Z,67.71
2023-11-21T07:17:41.939Z,67.48
2023-11-21T07:20:12.213Z,66.75
2023-11-21T07:22:42.045Z,66.07
2023-11-21T07:25:11.308Z,67.09
2023-11-21T07:27:38.992Z,65.29
2023-11-21T07:30:09.339Z,65.00
2023-11-21T07:32:37.286Z,65.34
2023-11-21T07:35:05.352Z,65.06
2023-11-21T07:37:35.312Z,64.90
2023-11-21T07:40:04.113Z,65.47
2023-11-21T07:42:32.437Z,65.76
2023-11-21T07:45:00.936Z,65.43
2023-11-21T07:47:33.798Z,64.88
2023-11-21T07:50:05.792Z,64.18
2023-11-21T07:52:34.161Z,65.07
2023-11-21T07:55:02.826Z,65.05
2023-11-21T07:57:30.270Z,65.07
2023-11-21T07:59:58.186Z,65.37
2023-11-21T08:02:27.325Z,65.29
2023-11-21T08:04:55.478Z,65.72
2023-11-21T08:07:23.468Z,66.39
2023-11-21T08:09:51.200Z,65.95
2023-11-21T08:12:19.447Z,65.81
2023-11-21T08:14:47.117Z,66.33
2023-11-21T08:17:18.568Z,65.96
2023-11-21T08:19:50.717Z,65.78
2023-11-21T08:22:19.103Z,65.79
2023-11-21T08:24:47.977Z,65.72
2023-11-21T08:27:17.183Z,66.12
2023-11-21T08:29:45.013Z,66.55
2023-11-21T08:32:12.899Z,65.80
2023-11-21T08:34:41.665Z,66.38
2023-11-21T08:37:09.263Z,66.24
2023-11-21T08:39:38.523Z,66.26
2023-11-21T08:42:06.163Z,65.80
2023-11-21T08:44:33.635Z,64.89
2023-11-21T08:47:01.412Z,65.29
2023-11-21T08:49:30.743Z,65.41
2023-11-21T08:52:00.692Z,65.05
2023-11-21T08:54:28.609Z,64.52
2023-11-21T08:56:56.366Z,64.86
2023-11-21T08:59:23.909Z,65.49
2023-11-21T09:01:52.033Z,65.37
2023-11-21T09:04:19.645Z,65.83
2023-11-21T09:06:47.281Z,64.68
2023-11-21T09:09:15.209Z,64.30
2023-11-21T09:11:42.807Z,64.49
2023-11-21T09:14:11.370Z,64.76
2023-11-21T09:16:40.026Z,65.52
2023-11-21T09:19:07.697Z,65.61
2023-11-21T09:21:35.674Z,66.27
2023-11-21T09:24:04.195Z,66.05
2023-11-21T09:26:31.861Z,66.25
2023-11-21T09:28:59.739Z,65.56
2023-11-21T09:31:28.937Z,65.60
2023-11-21T09:33:56.604Z,65.69
2023-11-21T09:36:28.401Z,65.48
2023-11-21T09:38:56.669Z,65.78
2023-11-21T09:41:36.276Z,65.35
2023-11-21T09:44:08.606Z,65.54
2023-11-21T09:46:40.734Z,65.19
2023-11-21T09:49:13.907Z,64.88
2023-11-21T09:51:44.802Z,64.58
2023-11-21T09:54:12.819Z,64.88
2023-11-21T09:56:40.430Z,63.80
2023-11-21T09:59:11.180Z,63.65
2023-11-21T10:01:40.509Z,63.21
2023-11-21T10:04:13.151Z,63.70
2023-11-21T10:06:42.749Z,64.07
2023-11-21T10:09:12.928Z,64.11
2023-11-21T10:11:44.744Z,63.02
2023-11-21T10:14:14.893Z,62.67
2023-11-21T10:16:43.066Z,62.36
2023-11-21T10:19:12.307Z,62.68
2023-11-21T10:21:40.924Z,62.80
2023-11-21T10:24:08.714Z,62.29
2023-11-21T10:26:47.272Z,62.14
2023-11-21T10:29:19.811Z,61.81
2023-11-21T10:31:50.975Z,61.80
2023-11-21T10:34:23.111Z,61.77
2023-11-21T10:36:51.407Z,60.89
2023-11-21T10:39:24.906Z,60.70
2023-11-21T10:41:52.581Z,60.81
2023-11-21T10:44:25.402Z,61.13
2023-11-21T10:46:57.341Z,60.55
2023-11-21T10:49:28.815Z,60.44
2023-11-21T10:51:57.075Z,59.95
2023-11-21T10:54:26.806Z,59.94
2023-11-21T10:56:58.139Z,59.31
2023-11-21T10:59:29.915Z,58.76
2023-11-21T11:01:59.269Z,58.48
2023-11-21T11:04:28.648Z,57.97
2023-11-21T11:06:59.139Z,58.50
2023-11-21T11:09:27.799Z,58.93
2023-11-21T11:11:55.321Z,59.68
2023-11-21T11:14:26.372Z,59.45
2023-11-21T11:16:57.074Z,58.59
2023-11-21T11:19:24.627Z,58.83
2023-11-21T11:22:20.120Z,58.57
2023-11-21T11:24:56.631Z,59.02
2023-11-21T11:27:36.254Z,58.27
2023-11-21T11:30:47.936Z,58.45
2023-11-21T11:33:27.564Z,57.87
2023-11-21T11:36:05.101Z,57.80
2023-11-21T11:38:34.646Z,57.91
2023-11-21T11:41:05.307Z,56.83
2023-11-21T11:43:45.694Z,55.64
2023-11-21T11:46:14.505Z,56.76
2023-11-21T11:48:42.215Z,57.87
2023-11-21T11:51:19.164Z,57.81
2023-11-21T11:53:48.254Z,57.78
2023-11-21T11:56:29.009Z,57.82
2023-11-21T11:58:58.459Z,57.50
2023-11-21T12:01:28.247Z,57.07
2023-11-21T12:04:35.331Z,57.09
2023-11-21T12:07:04.303Z,57.80
2023-11-21T12:09:32.990Z,58.49
2023-11-21T12:12:01.356Z,58.48
2023-11-21T12:14:30.032Z,58.04
2023-11-21T12:16:57.987Z,57.55
2023-11-21T12:19:26.122Z,57.65
2023-11-21T12:21:54.165Z,57.09
2023-11-21T12:24:22.115Z,57.05
2023-11-21T12:26:49.805Z,56.97
2023-11-21T12:29:18.055Z,56.64
2023-11-21T12:31:47.383Z,57.01
2023-11-21T12:34:15.831Z,57.24
2023-11-21T12:36:43.854Z,57.30
2023-11-21T12:39:12.136Z,57.09
2023-11-21T12:41:40.203Z,56.28
2023-11-21T12:44:16.783Z,54.52
2023-11-21T12:46:46.490Z,54.78
2023-11-21T12:49:18.720Z,55.07
2023-11-21T12:51:47.828Z,54.79
2023-11-21T12:54:17.018Z,54.79
2023-11-21T12:56:48.695Z,54.14
2023-11-21T12:59:19.300Z,54.60
2023-11-21T13:01:48.323Z,55.40
2023-11-21T13:04:16.316Z,55.06
2023-11-21T13:06:43.925Z,55.19
2023-11-21T13:09:19.355Z,55.22
2023-11-21T13:11:48.038Z,55.09
2023-11-21T13:14:16.007Z,56.75
2023-11-21T13:16:47.713Z,56.51
2023-11-21T13:19:15.865Z,56.19
2023-11-21T13:21:45.057Z,56.01
2023-11-21T13:24:12.701Z,56.91
2023-11-21T13:26:40.572Z,56.74
2023-11-21T13:29:10.393Z,57.10
2023-11-21T13:31:39.663Z,56.84
2023-11-21T13:34:09.664Z,57.12
2023-11-21T13:36:37.510Z,57.14
2023-11-21T13:39:16.737Z,57.74
2023-11-21T13:41:44.897Z,57.21
2023-11-21T13:44:28.317Z,57.62
2023-11-21T13:46:59.493Z,57.96
2023-11-21T13:49:30.314Z,58.51
2023-11-21T13:51:59.889Z,58.02
2023-11-21T13:54:28.589Z,57.76
2023-11-21T13:56:56.877Z,57.36
2023-11-21T13:59:29.351Z,57.63
2023-11-21T14:02:01.372Z,57.51
2023-11-21T14:04:49.683Z,57.62
2023-11-21T14:07:28.011Z,58.65
2023-11-21T14:09:57.393Z,57.61
2023-11-21T14:12:25.848Z,57.89
2023-11-21T14:14:53.929Z,58.11
2023-11-21T14:17:23.616Z,57.40
2023-11-21T14:20:04.174Z,58.01
2023-11-21T14:26:31.409Z,58.55
2023-11-21T14:29:23.694Z,58.59
2023-11-21T14:32:02.842Z,58.25
2023-11-21T14:34:30.896Z,58.72
2023-11-21T14:36:59.569Z,58.70
2023-11-21T14:39:39.032Z,58.15
2023-11-21T14:42:09.369Z,57.94
2023-11-21T15:06:30.696Z,59.25
2023-11-21T15:09:08.143Z,59.26
2023-11-21T15:11:36.616Z,59.29
2023-11-21T15:14:10.322Z,59.83
2023-11-21T15:16:44.478Z,59.39
2023-11-21T15:19:19.072Z,59.58
2023-11-21T15:21:47.199Z,59.32
2023-11-21T15:24:14.997Z,59.05
2023-11-21T15:26:42.463Z,59.81
2023-11-21T15:29:10.188Z,60.28
2023-11-21T15:31:39.542Z,60.41
2023-11-21T15:34:07.126Z,60.15
2023-11-21T15:36:34.862Z,59.90
2023-11-21T15:39:02.669Z,60.34
2023-11-21T15:41:30.208Z,60.24
2023-11-21T15:43:58.942Z,60.38
2023-11-21T15:46:27.106Z,60.58
2023-11-21T15:48:58.057Z,60.57
2023-11-21T15:51:25.928Z,60.49
2023-11-21T15:53:53.768Z,60.42
2023-11-21T15:56:21.198Z,60.32
2023-11-21T15:58:51.415Z,60.36
2023-11-21T16:01:23.135Z,59.80
2023-11-21T16:03:52.127Z,59.84
2023-11-21T16:06:19.867Z,59.65
2023-11-21T16:08:47.408Z,59.50
2023-11-21T16:11:15.219Z,59.68
2023-11-21T16:13:43.732Z,60.08
2023-11-21T16:16:11.322Z,59.99
2023-11-21T16:18:39.567Z,60.03
2023-11-21T16:21:09.210Z,60.34
2023-11-21T16:23:38.210Z,60.35
2023-11-21T16:26:07.262Z,60.36
2023-11-21T16:28:34.936Z,60.68
2023-11-21T16:31:02.739Z,60.51
2023-11-21T16:33:30.828Z,61.06
2023-11-21T16:35:58.256Z,60.62
2023-11-21T16:38:25.845Z,60.88
2023-11-21T16:40:53.779Z,61.98
2023-11-21T16:43:22.484Z,61.39
2023-11-21T16:45:53.087Z,61.68
2023-11-21T16:48:21.343Z,60.93
2023-11-21T16:50:50.092Z,61.41
2023-11-21T16:53:18.376Z,60.96
2023-11-21T16:55:50.384Z,61.72
2023-11-21T16:58:18.839Z,61.36
2023-11-21T17:00:48.742Z,60.95
2023-11-21T17:03:16.738Z,60.70
2023-11-21T17:05:44.363Z,61.07
2023-11-21T17:08:13.308Z,61.48
2023-11-21T17:10:40.840Z,62.02
2023-11-21T17:13:08.473Z,62.00
2023-11-21T17:15:36.217Z,62.49
2023-11-21T17:18:04.377Z,62.18
2023-11-21T17:20:31.978Z,62.46
2023-11-21T17:23:00.401Z,62.39
2023-11-21T17:25:27.892Z,62.92
2023-11-21T17:27:57.288Z,62.68
2023-11-21T17:30:25.087Z,62.76
2023-11-21T17:32:52.717Z,62.14
2023-11-21T17:35:20.459Z,62.26
2023-11-21T17:37:48.428Z,62.79
2023-11-21T17:40:16.442Z,62.96
2023-11-21T17:42:43.935Z,63.31
2023-11-21T17:45:11.835Z,62.95
2023-11-21T17:47:39.521Z,63.59
2023-11-21T17:50:07.120Z,64.10
2023-11-21T17:52:35.480Z,64.11
2023-11-21T17:55:02.937Z,63.68
2023-11-21T17:57:30.484Z,64.30
2023-11-21T17:59:58.175Z,64.49
2023-11-21T18:02:25.799Z,64.16
2023-11-21T18:04:53.610Z,63.76
2023-11-21T18:07:21.054Z,63.93
2023-11-21T18:09:48.880Z,64.28
2023-11-21T18:12:17.663Z,64.04
2023-11-21T18:14:49.467Z,62.70
2023-11-21T18:17:18.716Z,62.86
2023-11-21T18:19:48.231Z,62.78
2023-11-21T18:22:16.679Z,63.76
2023-11-21T18:24:44.366Z,63.18
2023-11-21T18:27:12.059Z,62.97
2023-11-21T18:29:39.681Z,62.93
2023-11-21T18:32:11.504Z,62.68
2023-11-21T18:34:44.635Z,64.11
2023-11-21T18:37:13.211Z,64.43
2023-11-21T18:39:43.705Z,65.08
2023-11-21T18:42:11.090Z,65.72
2023-11-21T18:44:55.087Z,65.20
2023-11-21T18:47:26.530Z,65.03
2023-11-21T18:49:54.545Z,63.47
2023-11-21T18:52:22.020Z,64.08
2023-11-21T18:54:49.774Z,63.97
2023-11-21T18:57:17.928Z,63.40
2023-11-21T18:59:46.076Z,64.32
2023-11-21T19:02:17.066Z,63.05
2023-11-21T19:04:45.810Z,63.50
2023-11-21T19:07:13.626Z,63.99
2023-11-21T19:09:41.313Z,63.74
2023-11-21T19:12:09.670Z,63.28
2023-11-21T19:14:37.168Z,63.83
2023-11-21T19:17:04.766Z,64.35
2023-11-21T19:19:32.837Z,63.94
2023-11-21T19:22:00.809Z,63.68
2023-11-21T19:24:30.081Z,63.83
2023-11-21T19:26:57.965Z,63.68
2023-11-21T19:29:26.741Z,64.02
2023-11-21T19:31:55.969Z,64.04
2023-11-21T19:34:24.359Z,64.20
2023-11-21T19:36:53.768Z,65.00
2023-11-21T19:39:21.347Z,64.33
2023-11-21T19:41:49.899Z,64.76
2023-11-21T19:44:17.488Z,64.26
2023-11-21T19:46:45.158Z,64.00
2023-11-21T19:49:13.669Z,63.56
2023-11-21T19:51:41.213Z,63.52
2023-11-21T19:54:09.988Z,64.11
2023-11-21T19:56:39.568Z,65.42
2023-11-21T19:59:07.149Z,65.81
2023-11-21T20:01:35.128Z,65.52
2023-11-21T20:04:03.048Z,65.71
2023-11-21T20:09:00.870Z,65.51
2023-11-21T20:11:28.715Z,64.94
2023-11-21T20:13:57.273Z,65.03
2023-11-21T20:16:26.779Z,65.35
2023-11-21T20:18:54.869Z,64.90
2023-11-21T20:21:23.551Z,64.56
2023-11-21T20:23:51.273Z,65.27
2023-11-21T20:26:26.039Z,64.69
2023-11-21T20:28:54.732Z,65.55
2023-11-21T20:31:22.666Z,65.33
2023-11-21T20:33:50.243Z,65.15
2023-11-21T20:36:17.908Z,66.44
2023-11-21T20:38:45.722Z,65.77
2023-11-21T20:41:15.452Z,66.03
2023-11-21T20:43:43.050Z,65.31
2023-11-21T20:46:11.853Z,66.69
2023-11-21T20:48:39.940Z,66.85
2023-11-21T20:51:08.093Z,66.95
2023-11-21T20:53:36.101Z,66.90
2023-11-21T20:56:04.022Z,65.68
2023-11-21T20:58:31.571Z,66.17
2023-11-21T21:00:59.465Z,65.81
2023-11-21T21:03:27.098Z,67.43
2023-11-21T21:05:54.640Z,66.87
2023-11-21T21:08:22.386Z,66.79
2023-11-21T21:10:49.930Z,66.38
2023-11-21T21:13:18.862Z,65.37
2023-11-21T21:15:49.745Z,65.19
2023-11-21T21:18:17.723Z,65.32
2023-11-21T21:20:45.896Z,65.54
2023-11-21T21:23:15.176Z,65.46
2023-11-21T21:25:42.708Z,64.92
2023-11-21T21:28:10.151Z,65.32
2023-11-21T21:30:38.220Z,64.61
2023-11-21T21:33:07.138Z,64.82
2023-11-21T21:35:34.896Z,64.30
2023-11-21T21:38:03.363Z,64.27
2023-11-21T21:40:33.208Z,64.21
2023-11-21T21:43:02.119Z,62.82
2023-11-21T21:45:30.132Z,63.19
2023-11-21T21:47:57.776Z,64.00
2023-11-21T21:50:26.775Z,63.80
2023-11-21T21:52:58.514Z,64.24
2023-11-21T21:55:30.235Z,63.65
2023-11-21T21:57:58.109Z,64.22
2023-11-21T22:00:25.667Z,63.58
2023-11-21T22:02:53.448Z,64.32
2023-11-21T22:05:20.951Z,64.12
2023-11-21T22:07:48.406Z,64.26
2023-11-21T22:10:16.303Z,64.61
2023-11-21T22:12:44.083Z,65.14
2023-11-21T22:15:11.620Z,64.23
2023-11-21T22:17:39.540Z,62.77
2023-11-21T22:20:07.608Z,63.68
2023-11-21T22:22:35.073Z,63.71
2023-11-21T22:25:04.666Z,64.03
2023-11-21T22:27:32.259Z,64.62
2023-11-21T22:30:00.133Z,64.33
2023-11-21T22:32:28.701Z,64.50
2023-11-21T22:34:56.148Z,64.61
2023-11-21T22:37:23.671Z,64.33
2023-11-21T22:39:52.635Z,64.22
2023-11-21T22:42:21.768Z,63.95
2023-11-21T22:44:49.374Z,65.04
2023-11-21T22:47:17.365Z,63.83
2023-11-21T22:49:45.038Z,63.44
2023-11-21T22:52:12.509Z,64.54
2023-11-21T22:54:40.382Z,65.27
2023-11-21T22:57:07.968Z,63.89
2023-11-21T22:59:36.833Z,63.91
2023-11-21T23:02:05.075Z,63.54
2023-11-21T23:04:32.652Z,64.20
2023-11-21T23:07:00.177Z,62.40
2023-11-21T23:09:28.018Z,62.88
2023-11-21T23:11:55.578Z,62.98
2023-11-21T23:14:23.127Z,64.06
2023-11-21T23:16:52.723Z,63.86
2023-11-21T23:19:21.628Z,63.99
2023-11-21T23:21:49.186Z,63.99
2023-11-21T23:24:21.324Z,63.66
2023-11-21T23:26:49.230Z,61.92
2023-11-21T23:29:17.799Z,63.13
2023-11-21T23:31:45.313Z,63.04
2023-11-21T23:34:13.139Z,62.91
2023-11-21T23:36:41.378Z,63.29
2023-11-21T23:39:09.167Z,63.57
2023-11-21T23:41:36.667Z,63.46
2023-11-21T23:44:05.797Z,62.26
2023-11-21T23:46:36.892Z,63.50
2023-11-21T23:49:04.728Z,63.39
2023-11-21T23:51:32.330Z,64.08
2023-11-21T23:53:59.789Z,64.21
2023-11-21T23:56:27.763Z,64.63
2023-11-21T23:58:55.897Z,64.62
